createdAt,value
2023-02-14T05:47:36.649Z,25.67
2023-02-14T05:50:04.827Z,31.90
2023-02-14T05:52:33.106Z,35.22
2023-02-14T05:55:01.118Z,35.90
2023-02-14T05:57:29.126Z,34.65
2023-02-14T05:59:57.330Z,32.22
2023-02-14T06:02:25.423Z,32.35
2023-02-14T06:04:55.017Z,31.95
2023-02-14T06:07:23.140Z,32.35
2023-02-14T06:09:53.458Z,32.75
2023-02-14T06:12:21.504Z,34.80
2023-02-14T06:14:49.452Z,33.50
2023-02-14T06:17:17.557Z,36.90
2023-02-14T06:19:45.656Z,35.90
2023-02-14T06:22:16.083Z,36.83
2023-02-14T06:24:44.106Z,36.25
2023-02-14T06:27:12.059Z,35.05
2023-02-14T06:29:39.984Z,35.35
2023-02-14T06:32:08.030Z,33.88
2023-02-14T06:34:36.794Z,32.72
2023-02-14T06:37:04.725Z,34.40
2023-02-14T06:39:34.132Z,33.20
2023-02-14T06:42:02.124Z,33.20
2023-02-14T06:44:30.130Z,33.60
2023-02-14T06:46:58.115Z,33.22
2023-02-14T06:49:26.039Z,34.35
2023-02-14T06:51:54.027Z,33.25
2023-02-14T06:54:22.010Z,33.35
2023-02-14T06:56:51.278Z,35.60
2023-02-14T06:59:19.238Z,36.47
2023-02-14T07:01:47.196Z,34.35
2023-02-14T07:04:15.590Z,35.05
2023-02-14T07:06:43.558Z,33.80
2023-02-14T07:09:11.496Z,34.67
2023-02-14T07:11:39.423Z,32.72
2023-02-14T07:14:08.691Z,33.53
2023-02-14T07:16:36.598Z,31.65
2023-02-14T07:19:04.511Z,32.15
2023-02-14T07:21:32.432Z,32.58
2023-02-14T07:24:00.381Z,32.72
2023-02-14T07:26:28.409Z,33.75
2023-02-14T07:28:56.377Z,36.15
2023-02-14T07:31:25.852Z,35.28
2023-02-14T07:33:53.983Z,37.13
2023-02-14T07:36:21.956Z,36.75
2023-02-14T07:38:49.933Z,38.72
2023-02-14T07:41:17.832Z,38.30
2023-02-14T07:43:45.707Z,35.58
2023-02-14T15:02:35.464Z,16.02
2023-02-14T15:05:18.582Z,16.83
2023-02-14T15:07:46.590Z,16.17
2023-02-14T15:10:25.571Z,16.60
2023-02-14T15:13:14.197Z,15.20
2023-02-14T15:15:43.397Z,16.38
2023-02-14T15:18:15.299Z,15.38
2023-02-14T15:20:43.586Z,16.05
2023-02-14T15:23:19.659Z,16.13
2023-02-14T15:25:49.083Z,16.33
2023-02-14T15:28:28.941Z,15.90
2023-02-14T15:30:59.776Z,16.60
2023-02-14T15:33:31.409Z,16.50
2023-02-14T15:36:03.381Z,15.75
2023-02-14T15:38:33.844Z,14.85
2023-02-14T15:41:02.728Z,15.32
2023-02-14T15:43:33.747Z,16.25
2023-02-14T15:46:17.288Z,15.57
2023-02-14T15:48:47.695Z,16.60
2023-02-14T15:51:20.012Z,16.38
2023-02-14T15:53:53.423Z,16.00
2023-02-14T15:56:24.978Z,15.60
2023-02-14T15:58:59.775Z,15.93
2023-02-14T16:01:28.204Z,17.15
2023-02-14T16:04:01.248Z,16.20
2023-02-14T16:06:35.864Z,16.90
2023-02-14T16:09:05.233Z,19.08
2023-02-14T16:11:35.981Z,15.73
2023-02-14T16:14:30.709Z,16.60
2023-02-14T16:17:01.468Z,16.85
2023-02-14T16:19:39.331Z,36.33
2023-02-14T16:22:08.202Z,35.78
2023-02-14T16:24:37.822Z,66.55
2023-02-14T16:27:07.977Z,100.20
2023-02-14T16:29:37.104Z,95.50
2023-02-14T16:32:16.996Z,56.85
2023-02-14T16:34:48.340Z,26.80
2023-02-14T16:37:23.010Z,18.92
2023-02-14T16:39:52.252Z,16.38
2023-02-14T16:42:20.599Z,15.85
2023-02-14T16:44:50.337Z,16.25
2023-02-14T16:47:20.726Z,16.98
2023-02-14T16:49:50.740Z,15.88
2023-02-14T16:52:23.438Z,17.55
2023-02-14T16:54:51.628Z,18.50
2023-02-14T16:57:25.856Z,18.38
2023-02-14T16:59:56.456Z,17.85
2023-02-14T17:02:26.254Z,17.75
2023-02-14T17:04:55.667Z,19.13
2023-02-14T17:07:24.147Z,17.63
2023-02-14T17:09:55.960Z,20.02
2023-02-14T17:12:28.154Z,19.23
2023-02-14T17:14:58.853Z,19.65
2023-02-14T17:17:27.326Z,18.38
2023-02-14T17:19:56.887Z,20.70
2023-02-14T17:22:24.877Z,19.83
2023-02-14T17:24:52.930Z,21.00
2023-02-14T17:27:20.832Z,21.88
2023-02-14T17:29:51.416Z,24.80
2023-02-14T17:32:19.713Z,21.75
2023-02-14T17:34:50.994Z,21.80
2023-02-14T17:37:24.775Z,22.23
2023-02-14T17:39:54.038Z,22.17
2023-02-14T17:42:22.389Z,26.58
2023-02-14T17:44:53.492Z,27.50
2023-02-14T17:47:21.635Z,27.38
2023-02-14T17:49:49.640Z,25.45
2023-02-14T17:52:18.176Z,22.90
2023-02-14T17:54:47.437Z,21.58
2023-02-14T17:57:15.452Z,20.40
2023-02-14T17:59:45.251Z,19.67
2023-02-14T18:02:13.518Z,22.17
2023-02-14T18:04:41.673Z,20.88
2023-02-14T18:07:09.579Z,19.42
2023-02-14T18:09:37.717Z,20.20
2023-02-14T18:12:11.179Z,21.63
2023-02-14T18:14:41.796Z,23.40
2023-02-14T18:17:09.876Z,22.60
2023-02-14T18:19:37.848Z,21.92
2023-02-14T18:22:05.964Z,23.17
2023-02-14T18:24:33.956Z,23.55
2023-02-14T18:27:02.937Z,24.35
2023-02-14T18:29:32.326Z,25.58
2023-02-14T18:32:01.875Z,21.30
2023-02-14T18:34:29.980Z,24.75
2023-02-14T18:37:02.669Z,25.83
2023-02-14T18:39:30.627Z,25.52
2023-02-14T18:42:00.011Z,28.02
2023-02-14T18:44:33.068Z,27.95
2023-02-14T18:47:06.534Z,26.50
2023-02-14T18:49:34.683Z,26.45
2023-02-14T18:52:06.868Z,26.80
2023-02-14T18:54:43.830Z,25.88
2023-02-14T18:57:15.776Z,27.55
2023-02-14T18:59:47.889Z,26.80
2023-02-14T19:02:17.318Z,33.13
2023-02-14T19:04:45.237Z,36.97
2023-02-14T19:07:17.461Z,39.08
2023-02-14T19:09:49.362Z,31.52
2023-02-14T19:12:23.293Z,27.08
2023-02-14T19:14:51.361Z,29.30
2023-02-14T19:17:20.733Z,30.55
2023-02-14T19:19:57.482Z,41.55
2023-02-14T19:22:28.243Z,34.78
2023-02-14T19:24:58.987Z,35.30
2023-02-14T19:27:28.882Z,39.65
2023-02-14T19:30:02.409Z,45.75
2023-02-14T19:32:33.090Z,40.10
2023-02-14T19:35:01.040Z,38.25
2023-02-14T19:37:29.100Z,36.90
2023-02-14T19:39:57.113Z,34.47
2023-02-14T19:42:25.156Z,30.10
2023-02-14T19:44:53.125Z,34.63
2023-02-14T19:47:33.478Z,33.75
2023-02-14T19:50:11.136Z,56.88
2023-02-14T19:52:39.586Z,36.90
2023-02-14T19:55:09.079Z,26.92
2023-02-14T19:57:41.090Z,26.48
2023-02-14T20:00:11.083Z,30.92
2023-02-14T20:02:45.470Z,38.13
2023-02-14T20:05:15.112Z,38.75
2023-02-14T20:07:43.676Z,28.95
2023-02-14T20:10:12.434Z,26.90
2023-02-14T20:12:40.752Z,30.65
2023-02-14T20:15:10.994Z,26.73
2023-02-14T20:17:41.459Z,27.23
2023-02-14T20:20:13.303Z,23.48
2023-02-14T20:22:42.979Z,25.75
2023-02-14T20:25:11.314Z,22.67
2023-02-14T20:27:39.406Z,22.73
2023-02-14T20:30:09.394Z,25.33
2023-02-14T20:32:37.549Z,28.48
2023-02-14T20:35:05.905Z,31.70
2023-02-14T20:37:36.666Z,33.65
2023-02-14T20:40:10.881Z,37.65
2023-02-14T20:42:39.612Z,33.72
2023-02-14T20:45:08.230Z,39.38
2023-02-14T20:47:36.284Z,32.90
2023-02-14T20:50:04.426Z,28.85
2023-02-14T20:52:32.348Z,29.95
2023-02-14T20:55:00.319Z,27.60
2023-02-14T20:57:30.022Z,27.90
2023-02-14T20:59:58.002Z,28.08
